sensor_id;sensor_type;location;lat;lon;timestamp;P1;durP1;ratioP1;P2;durP2;ratioP2
61477;SDS011;47345;52.334;10.392;2023-05-10T00:02:14;8.20;;;3.80;;
61477;SDS011;47345;52.334;10.392;2023-05-10T00:04:45;3.90;;;3.30;;
61477;SDS011;47345;52.334;10.392;2023-05-10T00:07:15;6.20;;;3.30;;
61477;SDS011;47345;52.334;10.392;2023-05-10T00:09:46;4.30;;;3.20;;
61477;SDS011;47345;52.334;10.392;2023-05-10T00:12:16;6.20;;;3.60;;
61477;SDS011;47345;52.334;10.392;2023-05-10T00:14:47;5.60;;;3.20;;
61477;SDS011;47345;52.334;10.392;2023-05-10T00:17:17;4.10;;;3.40;;
61477;SDS011;47345;52.334;10.392;2023-05-10T00:19:48;6.40;;;3.40;;
61477;SDS011;47345;52.334;10.392;2023-05-10T00:22:19;5.00;;;3.60;;
61477;SDS011;47345;52.334;10.392;2023-05-10T00:24:50;6.70;;;3.70;;
61477;SDS011;47345;52.334;10.392;2023-05-10T00:27:20;4.40;;;3.40;;
61477;SDS011;47345;52.334;10.392;2023-05-10T00:29:51;5.70;;;3.50;;
61477;SDS011;47345;52.334;10.392;2023-05-10T00:32:21;10.90;;;3.70;;
61477;SDS011;47345;52.334;10.392;2023-05-10T00:34:52;4.30;;;3.10;;
61477;SDS011;47345;52.334;10.392;2023-05-10T00:37:23;5.50;;;3.60;;
61477;SDS011;47345;52.334;10.392;2023-05-10T00:39:54;5.60;;;3.30;;
61477;SDS011;47345;52.334;10.392;2023-05-10T00:42:24;4.50;;;3.30;;
61477;SDS011;47345;52.334;10.392;2023-05-10T00:44:55;3.80;;;3.10;;
61477;SDS011;47345;52.334;10.392;2023-05-10T00:47:26;6.30;;;3.70;;
61477;SDS011;47345;52.334;10.392;2023-05-10T00:49:57;4.10;;;3.20;;
61477;SDS011;47345;52.334;10.392;2023-05-10T00:52:29;6.30;;;3.30;;
61477;SDS011;47345;52.334;10.392;2023-05-10T00:55:00;5.00;;;3.40;;
61477;SDS011;47345;52.334;10.392;2023-05-10T00:57:32;5.80;;;3.60;;
61477;SDS011;47345;52.334;10.392;2023-05-10T01:00:04;5.40;;;3.20;;
61477;SDS011;47345;52.334;10.392;2023-05-10T01:02:37;3.80;;;3.10;;
61477;SDS011;47345;52.334;10.392;2023-05-10T01:05:10;4.80;;;3.40;;
61477;SDS011;47345;52.334;10.392;2023-05-10T01:07:41;3.70;;;3.00;;
61477;SDS011;47345;52.334;10.392;2023-05-10T01:10:11;5.60;;;3.70;;
61477;SDS011;47345;52.334;10.392;2023-05-10T01:12:44;5.70;;;3.50;;
61477;SDS011;47345;52.334;10.392;2023-05-10T01:15:16;4.80;;;3.50;;
61477;SDS011;47345;52.334;10.392;2023-05-10T01:17:49;3.80;;;3.20;;
61477;SDS011;47345;52.334;10.392;2023-05-10T01:20:21;4.10;;;3.20;;
61477;SDS011;47345;52.334;10.392;2023-05-10T01:23:08;5.50;;;3.50;;
61477;SDS011;47345;52.334;10.392;2023-05-10T01:26:01;4.10;;;3.30;;
61477;SDS011;47345;52.334;10.392;2023-05-10T01:31:56;10.20;;;4.00;;
61477;SDS011;47345;52.334;10.392;2023-05-10T01:34:58;5.70;;;3.80;;
61477;SDS011;47345;52.334;10.392;2023-05-10T01:37:33;6.50;;;3.20;;
61477;SDS011;47345;52.334;10.392;2023-05-10T01:40:13;5.80;;;3.40;;
61477;SDS011;47345;52.334;10.392;2023-05-10T01:42:51;4.30;;;3.40;;
61477;SDS011;47345;52.334;10.392;2023-05-10T01:45:28;4.90;;;3.50;;
61477;SDS011;47345;52.334;10.392;2023-05-10T01:48:05;5.20;;;3.50;;
61477;SDS011;47345;52.334;10.392;2023-05-10T01:50:39;6.50;;;3.90;;
61477;SDS011;47345;52.334;10.392;2023-05-10T01:53:13;6.40;;;3.80;;
61477;SDS011;47345;52.334;10.392;2023-05-10T01:55:48;5.00;;;3.40;;
61477;SDS011;47345;52.334;10.392;2023-05-10T01:58:22;4.20;;;3.30;;
61477;SDS011;47345;52.334;10.392;2023-05-10T02:01:01;6.80;;;3.70;;
61477;SDS011;47345;52.334;10.392;2023-05-10T02:03:34;4.20;;;3.10;;
61477;SDS011;47345;52.334;10.392;2023-05-10T02:06:07;4.90;;;3.40;;
61477;SDS011;47345;52.334;10.392;2023-05-10T02:08:41;8.50;;;3.60;;
61477;SDS011;47345;52.334;10.392;2023-05-10T02:11:14;3.90;;;3.30;;
61477;SDS011;47345;52.334;10.392;2023-05-10T02:13:46;3.50;;;3.10;;
61477;SDS011;47345;52.334;10.392;2023-05-10T02:16:18;4.60;;;3.10;;
61477;SDS011;47345;52.334;10.392;2023-05-10T02:18:54;4.60;;;3.40;;
61477;SDS011;47345;52.334;10.392;2023-05-10T02:21:28;3.90;;;3.30;;
61477;SDS011;47345;52.334;10.392;2023-05-10T02:24:00;5.10;;;3.70;;
61477;SDS011;47345;52.334;10.392;2023-05-10T02:26:33;4.20;;;3.20;;
61477;SDS011;47345;52.334;10.392;2023-05-10T02:29:07;4.10;;;3.10;;
61477;SDS011;47345;52.334;10.392;2023-05-10T02:31:40;4.50;;;3.30;;
61477;SDS011;47345;52.334;10.392;2023-05-10T02:34:11;3.60;;;3.30;;
61477;SDS011;47345;52.334;10.392;2023-05-10T02:36:43;5.10;;;3.30;;
61477;SDS011;47345;52.334;10.392;2023-05-10T02:39:14;4.50;;;3.10;;
61477;SDS011;47345;52.334;10.392;2023-05-10T02:41:47;4.60;;;3.60;;
61477;SDS011;47345;52.334;10.392;2023-05-10T02:44:19;5.20;;;3.30;;
61477;SDS011;47345;52.334;10.392;2023-05-10T02:46:51;4.70;;;3.50;;
61477;SDS011;47345;52.334;10.392;2023-05-10T02:49:24;5.30;;;3.60;;
61477;SDS011;47345;52.334;10.392;2023-05-10T02:51:56;5.20;;;3.30;;
61477;SDS011;47345;52.334;10.392;2023-05-10T02:54:31;5.10;;;3.60;;
61477;SDS011;47345;52.334;10.392;2023-05-10T02:57:08;4.90;;;3.60;;
61477;SDS011;47345;52.334;10.392;2023-05-10T02:59:45;4.10;;;3.40;;
61477;SDS011;47345;52.334;10.392;2023-05-10T03:02:16;5.70;;;4.00;;
61477;SDS011;47345;52.334;10.392;2023-05-10T03:04:48;5.90;;;3.40;;
61477;SDS011;47345;52.334;10.392;2023-05-10T03:07:20;4.10;;;3.30;;
61477;SDS011;47345;52.334;10.392;2023-05-10T03:09:51;5.60;;;3.60;;
61477;SDS011;47345;52.334;10.392;2023-05-10T03:12:23;4.10;;;3.20;;
61477;SDS011;47345;52.334;10.392;2023-05-10T03:15:03;4.70;;;3.30;;
61477;SDS011;47345;52.334;10.392;2023-05-10T03:17:54;4.50;;;3.10;;
61477;SDS011;47345;52.334;10.392;2023-05-10T03:20:31;6.20;;;4.10;;
61477;SDS011;47345;52.334;10.392;2023-05-10T03:23:07;4.20;;;3.10;;
61477;SDS011;47345;52.334;10.392;2023-05-10T03:25:41;4.60;;;3.40;;
61477;SDS011;47345;52.334;10.392;2023-05-10T03:28:13;5.30;;;3.10;;
61477;SDS011;47345;52.334;10.392;2023-05-10T03:30:45;5.20;;;3.50;;
61477;SDS011;47345;52.334;10.392;2023-05-10T03:33:16;5.10;;;3.30;;
61477;SDS011;47345;52.334;10.392;2023-05-10T03:35:48;4.70;;;3.00;;
61477;SDS011;47345;52.334;10.392;2023-05-10T03:38:19;4.90;;;3.30;;
61477;SDS011;47345;52.334;10.392;2023-05-10T03:40:49;6.20;;;3.70;;
61477;SDS011;47345;52.334;10.392;2023-05-10T03:43:20;4.60;;;3.30;;
61477;SDS011;47345;52.334;10.392;2023-05-10T03:45:51;3.90;;;3.20;;
61477;SDS011;47345;52.334;10.392;2023-05-10T03:48:22;4.30;;;3.30;;
61477;SDS011;47345;52.334;10.392;2023-05-10T03:50:53;5.70;;;3.70;;
61477;SDS011;47345;52.334;10.392;2023-05-10T03:53:25;5.40;;;4.00;;
61477;SDS011;47345;52.334;10.392;2023-05-10T03:55:56;5.10;;;3.10;;
61477;SDS011;47345;52.334;10.392;2023-05-10T03:58:27;6.00;;;4.20;;
61477;SDS011;47345;52.334;10.392;2023-05-10T04:00:58;9.40;;;4.10;;
61477;SDS011;47345;52.334;10.392;2023-05-10T04:03:28;4.40;;;3.50;;
61477;SDS011;47345;52.334;10.392;2023-05-10T04:06:00;8.10;;;3.40;;
61477;SDS011;47345;52.334;10.392;2023-05-10T04:08:31;6.40;;;3.70;;
61477;SDS011;47345;52.334;10.392;2023-05-10T04:11:06;4.40;;;3.60;;
61477;SDS011;47345;52.334;10.392;2023-05-10T04:13:37;5.90;;;4.00;;
61477;SDS011;47345;52.334;10.392;2023-05-10T04:16:08;4.50;;;3.40;;
61477;SDS011;47345;52.334;10.392;2023-05-10T04:18:39;5.00;;;4.00;;
61477;SDS011;47345;52.334;10.392;2023-05-10T04:21:12;6.50;;;4.30;;
61477;SDS011;47345;52.334;10.392;2023-05-10T04:23:44;5.00;;;3.70;;
61477;SDS011;47345;52.334;10.392;2023-05-10T04:26:14;5.60;;;4.10;;
61477;SDS011;47345;52.334;10.392;2023-05-10T04:28:45;4.60;;;3.50;;
61477;SDS011;47345;52.334;10.392;2023-05-10T04:31:16;4.50;;;3.20;;
61477;SDS011;47345;52.334;10.392;2023-05-10T04:33:47;4.40;;;3.50;;
61477;SDS011;47345;52.334;10.392;2023-05-10T04:36:18;5.90;;;3.70;;
61477;SDS011;47345;52.334;10.392;2023-05-10T04:38:49;5.70;;;3.50;;
61477;SDS011;47345;52.334;10.392;2023-05-10T04:41:20;4.80;;;3.60;;
61477;SDS011;47345;52.334;10.392;2023-05-10T04:43:51;8.70;;;6.10;;
61477;SDS011;47345;52.334;10.392;2023-05-10T04:46:22;5.30;;;4.10;;
61477;SDS011;47345;52.334;10.392;2023-05-10T04:48:53;6.20;;;3.70;;
61477;SDS011;47345;52.334;10.392;2023-05-10T04:51:24;4.60;;;3.60;;
61477;SDS011;47345;52.334;10.392;2023-05-10T04:53:55;6.80;;;3.40;;
61477;SDS011;47345;52.334;10.392;2023-05-10T04:56:33;7.90;;;4.10;;
61477;SDS011;47345;52.334;10.392;2023-05-10T04:59:04;4.80;;;3.60;;
61477;SDS011;47345;52.334;10.392;2023-05-10T05:01:35;5.70;;;4.30;;
61477;SDS011;47345;52.334;10.392;2023-05-10T05:04:05;6.40;;;4.30;;
61477;SDS011;47345;52.334;10.392;2023-05-10T05:06:36;5.20;;;3.60;;
61477;SDS011;47345;52.334;10.392;2023-05-10T05:09:07;5.50;;;3.90;;
61477;SDS011;47345;52.334;10.392;2023-05-10T05:11:39;4.30;;;3.60;;
61477;SDS011;47345;52.334;10.392;2023-05-10T05:14:10;6.60;;;3.90;;
61477;SDS011;47345;52.334;10.392;2023-05-10T05:16:41;4.50;;;3.30;;
61477;SDS011;47345;52.334;10.392;2023-05-10T05:19:11;6.80;;;4.50;;
61477;SDS011;47345;52.334;10.392;2023-05-10T05:21:43;6.50;;;3.80;;
61477;SDS011;47345;52.334;10.392;2023-05-10T05:24:15;5.50;;;3.90;;
61477;SDS011;47345;52.334;10.392;2023-05-10T05:26:48;5.80;;;4.20;;
61477;SDS011;47345;52.334;10.392;2023-05-10T05:29:19;6.70;;;4.20;;
61477;SDS011;47345;52.334;10.392;2023-05-10T05:31:50;7.70;;;4.50;;
61477;SDS011;47345;52.334;10.392;2023-05-10T05:34:22;6.50;;;4.20;;
61477;SDS011;47345;52.334;10.392;2023-05-10T05:36:53;7.50;;;4.00;;
61477;SDS011;47345;52.334;10.392;2023-05-10T05:39:24;6.80;;;3.80;;
61477;SDS011;47345;52.334;10.392;2023-05-10T05:41:54;5.70;;;4.00;;
61477;SDS011;47345;52.334;10.392;2023-05-10T05:44:26;5.50;;;3.80;;
61477;SDS011;47345;52.334;10.392;2023-05-10T05:46:57;7.10;;;4.60;;
61477;SDS011;47345;52.334;10.392;2023-05-10T05:49:28;8.10;;;4.30;;
61477;SDS011;47345;52.334;10.392;2023-05-10T05:52:00;8.50;;;4.60;;
61477;SDS011;47345;52.334;10.392;2023-05-10T05:54:31;5.10;;;4.20;;
61477;SDS011;47345;52.334;10.392;2023-05-10T05:57:02;5.40;;;4.10;;
61477;SDS011;47345;52.334;10.392;2023-05-10T05:59:33;6.40;;;4.70;;
61477;SDS011;47345;52.334;10.392;2023-05-10T06:02:04;6.90;;;4.10;;
61477;SDS011;47345;52.334;10.392;2023-05-10T06:04:34;5.90;;;4.20;;
61477;SDS011;47345;52.334;10.392;2023-05-10T06:07:05;5.90;;;4.20;;
61477;SDS011;47345;52.334;10.392;2023-05-10T06:09:37;6.10;;;4.40;;
61477;SDS011;47345;52.334;10.392;2023-05-10T06:12:07;6.60;;;4.60;;
61477;SDS011;47345;52.334;10.392;2023-05-10T06:14:39;7.40;;;4.50;;
61477;SDS011;47345;52.334;10.392;2023-05-10T06:17:10;5.20;;;4.00;;
61477;SDS011;47345;52.334;10.392;2023-05-10T06:19:41;7.00;;;4.40;;
61477;SDS011;47345;52.334;10.392;2023-05-10T06:22:12;7.30;;;4.40;;
61477;SDS011;47345;52.334;10.392;2023-05-10T06:24:42;5.70;;;4.30;;
61477;SDS011;47345;52.334;10.392;2023-05-10T06:27:13;5.60;;;4.50;;
61477;SDS011;47345;52.334;10.392;2023-05-10T06:29:44;8.60;;;5.00;;
61477;SDS011;47345;52.334;10.392;2023-05-10T06:32:18;5.80;;;4.50;;
61477;SDS011;47345;52.334;10.392;2023-05-10T06:34:49;8.70;;;4.60;;
61477;SDS011;47345;52.334;10.392;2023-05-10T06:37:20;5.70;;;4.30;;
61477;SDS011;47345;52.334;10.392;2023-05-10T06:39:51;6.50;;;4.50;;
61477;SDS011;47345;52.334;10.392;2023-05-10T06:42:22;9.70;;;4.60;;
61477;SDS011;47345;52.334;10.392;2023-05-10T06:44:53;8.60;;;5.20;;
61477;SDS011;47345;52.334;10.392;2023-05-10T06:47:24;5.80;;;4.50;;
61477;SDS011;47345;52.334;10.392;2023-05-10T06:49:55;9.10;;;4.40;;
61477;SDS011;47345;52.334;10.392;2023-05-10T06:52:26;7.20;;;4.90;;
61477;SDS011;47345;52.334;10.392;2023-05-10T06:54:56;9.70;;;4.80;;
61477;SDS011;47345;52.334;10.392;2023-05-10T06:57:27;7.30;;;5.00;;
61477;SDS011;47345;52.334;10.392;2023-05-10T06:59:59;6.70;;;4.80;;
61477;SDS011;47345;52.334;10.392;2023-05-10T07:02:31;6.60;;;4.90;;
61477;SDS011;47345;52.334;10.392;2023-05-10T07:05:02;5.70;;;4.50;;
61477;SDS011;47345;52.334;10.392;2023-05-10T07:07:34;7.30;;;5.00;;
61477;SDS011;47345;52.334;10.392;2023-05-10T07:10:05;9.20;;;5.20;;
61477;SDS011;47345;52.334;10.392;2023-05-10T07:12:37;6.80;;;4.60;;
61477;SDS011;47345;52.334;10.392;2023-05-10T07:15:08;7.10;;;5.00;;
61477;SDS011;47345;52.334;10.392;2023-05-10T07:17:40;8.50;;;5.20;;
61477;SDS011;47345;52.334;10.392;2023-05-10T07:20:13;6.20;;;4.50;;
61477;SDS011;47345;52.334;10.392;2023-05-10T07:22:44;7.40;;;5.30;;
61477;SDS011;47345;52.334;10.392;2023-05-10T07:25:15;9.10;;;5.90;;
61477;SDS011;47345;52.334;10.392;2023-05-10T07:27:46;8.30;;;5.60;;
61477;SDS011;47345;52.334;10.392;2023-05-10T07:30:17;6.80;;;5.50;;
61477;SDS011;47345;52.334;10.392;2023-05-10T07:32:48;8.80;;;6.10;;
61477;SDS011;47345;52.334;10.392;2023-05-10T07:35:19;11.00;;;5.90;;
61477;SDS011;47345;52.334;10.392;2023-05-10T07:37:49;11.40;;;6.00;;
61477;SDS011;47345;52.334;10.392;2023-05-10T07:40:20;9.70;;;5.60;;
61477;SDS011;47345;52.334;10.392;2023-05-10T07:42:51;9.40;;;6.30;;
61477;SDS011;47345;52.334;10.392;2023-05-10T07:45:22;9.30;;;6.10;;
61477;SDS011;47345;52.334;10.392;2023-05-10T07:47:54;9.90;;;6.20;;
61477;SDS011;47345;52.334;10.392;2023-05-10T07:50:25;10.30;;;5.90;;
61477;SDS011;47345;52.334;10.392;2023-05-10T07:52:56;9.10;;;5.90;;
61477;SDS011;47345;52.334;10.392;2023-05-10T07:55:27;8.40;;;5.50;;
61477;SDS011;47345;52.334;10.392;2023-05-10T07:57:59;15.20;;;6.40;;
61477;SDS011;47345;52.334;10.392;2023-05-10T08:00:30;9.70;;;5.90;;
61477;SDS011;47345;52.334;10.392;2023-05-10T08:03:01;11.80;;;5.80;;
61477;SDS011;47345;52.334;10.392;2023-05-10T08:05:32;9.50;;;6.30;;
61477;SDS011;47345;52.334;10.392;2023-05-10T08:08:03;9.10;;;6.50;;
61477;SDS011;47345;52.334;10.392;2023-05-10T08:10:34;11.40;;;6.50;;
61477;SDS011;47345;52.334;10.392;2023-05-10T08:13:05;8.70;;;6.10;;
61477;SDS011;47345;52.334;10.392;2023-05-10T08:15:36;8.10;;;6.10;;
61477;SDS011;47345;52.334;10.392;2023-05-10T08:18:07;9.80;;;6.20;;
61477;SDS011;47345;52.334;10.392;2023-05-10T08:20:38;12.00;;;5.80;;
61477;SDS011;47345;52.334;10.392;2023-05-10T08:23:09;12.20;;;6.30;;
61477;SDS011;47345;52.334;10.392;2023-05-10T08:25:40;8.70;;;5.90;;
61477;SDS011;47345;52.334;10.392;2023-05-10T08:28:12;9.30;;;5.80;;
61477;SDS011;47345;52.334;10.392;2023-05-10T08:30:43;9.10;;;5.60;;
61477;SDS011;47345;52.334;10.392;2023-05-10T08:33:13;10.90;;;5.50;;
61477;SDS011;47345;52.334;10.392;2023-05-10T08:35:44;11.20;;;5.50;;
61477;SDS011;47345;52.334;10.392;2023-05-10T08:38:15;8.60;;;5.40;;
61477;SDS011;47345;52.334;10.392;2023-05-10T08:40:46;7.60;;;5.30;;
61477;SDS011;47345;52.334;10.392;2023-05-10T08:45:55;9.00;;;5.00;;
61477;SDS011;47345;52.334;10.392;2023-05-10T08:48:29;7.10;;;5.10;;
61477;SDS011;47345;52.334;10.392;2023-05-10T08:51:03;6.30;;;4.70;;
61477;SDS011;47345;52.334;10.392;2023-05-10T08:53:34;8.30;;;4.90;;
61477;SDS011;47345;52.334;10.392;2023-05-10T08:56:07;8.60;;;4.90;;
61477;SDS011;47345;52.334;10.392;2023-05-10T08:58:38;6.30;;;4.70;;
61477;SDS011;47345;52.334;10.392;2023-05-10T09:01:09;6.10;;;4.40;;
61477;SDS011;47345;52.334;10.392;2023-05-10T09:03:41;7.40;;;5.00;;
61477;SDS011;47345;52.334;10.392;2023-05-10T09:06:15;6.80;;;4.70;;
61477;SDS011;47345;52.334;10.392;2023-05-10T09:08:45;8.40;;;5.20;;
61477;SDS011;47345;52.334;10.392;2023-05-10T09:11:17;5.80;;;4.40;;
61477;SDS011;47345;52.334;10.392;2023-05-10T09:13:49;6.60;;;4.60;;
61477;SDS011;47345;52.334;10.392;2023-05-10T09:16:21;8.40;;;4.50;;
61477;SDS011;47345;52.334;10.392;2023-05-10T09:18:52;6.20;;;4.70;;
61477;SDS011;47345;52.334;10.392;2023-05-10T09:21:24;6.30;;;4.20;;
61477;SDS011;47345;52.334;10.392;2023-05-10T09:23:55;5.20;;;4.10;;
61477;SDS011;47345;52.334;10.392;2023-05-10T09:26:31;5.20;;;4.00;;
61477;SDS011;47345;52.334;10.392;2023-05-10T09:29:03;6.50;;;4.50;;
61477;SDS011;47345;52.334;10.392;2023-05-10T09:34:28;4.30;;;3.70;;
61477;SDS011;47345;52.334;10.392;2023-05-10T09:39:32;4.20;;;3.20;;
61477;SDS011;47345;52.334;10.392;2023-05-10T09:42:04;3.80;;;2.70;;
61477;SDS011;47345;52.334;10.392;2023-05-10T09:44:36;2.60;;;2.20;;
61477;SDS011;47345;52.334;10.392;2023-05-10T09:47:08;2.60;;;2.10;;
61477;SDS011;47345;52.334;10.392;2023-05-10T09:49:39;2.20;;;1.90;;
61477;SDS011;47345;52.334;10.392;2023-05-10T09:52:11;2.30;;;2.10;;
61477;SDS011;47345;52.334;10.392;2023-05-10T09:54:42;3.50;;;2.10;;
61477;SDS011;47345;52.334;10.392;2023-05-10T09:57:21;2.50;;;2.30;;
61477;SDS011;47345;52.334;10.392;2023-05-10T09:59:52;2.50;;;2.30;;
61477;SDS011;47345;52.334;10.392;2023-05-10T10:02:29;2.70;;;2.10;;
61477;SDS011;47345;52.334;10.392;2023-05-10T10:05:01;2.20;;;2.00;;
61477;SDS011;47345;52.334;10.392;2023-05-10T10:07:33;1.80;;;1.70;;
61477;SDS011;47345;52.334;10.392;2023-05-10T10:10:05;2.30;;;2.10;;
61477;SDS011;47345;52.334;10.392;2023-05-10T10:12:40;2.10;;;1.90;;
61477;SDS011;47345;52.334;10.392;2023-05-10T10:15:12;3.00;;;2.00;;
61477;SDS011;47345;52.334;10.392;2023-05-10T10:17:44;3.30;;;1.80;;
61477;SDS011;47345;52.334;10.392;2023-05-10T10:20:15;1.90;;;1.70;;
61477;SDS011;47345;52.334;10.392;2023-05-10T10:22:47;4.60;;;3.50;;
61477;SDS011;47345;52.334;10.392;2023-05-10T10:25:19;1.80;;;1.70;;
61477;SDS011;47345;52.334;10.392;2023-05-10T10:27:55;2.90;;;2.30;;
61477;SDS011;47345;52.334;10.392;2023-05-10T10:30:40;1.40;;;1.30;;
61477;SDS011;47345;52.334;10.392;2023-05-10T10:33:28;1.60;;;1.50;;
61477;SDS011;47345;52.334;10.392;2023-05-10T10:36:07;2.00;;;1.70;;
61477;SDS011;47345;52.334;10.392;2023-05-10T10:38:41;5.50;;;1.50;;
61477;SDS011;47345;52.334;10.392;2023-05-10T10:41:33;1.30;;;1.20;;
61477;SDS011;47345;52.334;10.392;2023-05-10T10:44:24;1.70;;;1.60;;
61477;SDS011;47345;52.334;10.392;2023-05-10T10:47:03;2.30;;;1.70;;
61477;SDS011;47345;52.334;10.392;2023-05-10T10:49:42;1.60;;;1.50;;
61477;SDS011;47345;52.334;10.392;2023-05-10T10:52:21;1.70;;;1.60;;
61477;SDS011;47345;52.334;10.392;2023-05-10T10:54:59;1.50;;;1.40;;
61477;SDS011;47345;52.334;10.392;2023-05-10T10:57:33;1.30;;;1.30;;
61477;SDS011;47345;52.334;10.392;2023-05-10T11:00:20;1.60;;;1.50;;
61477;SDS011;47345;52.334;10.392;2023-05-10T11:02:57;1.60;;;1.50;;
61477;SDS011;47345;52.334;10.392;2023-05-10T11:05:36;1.60;;;1.50;;
61477;SDS011;47345;52.334;10.392;2023-05-10T11:08:10;1.60;;;1.50;;
61477;SDS011;47345;52.334;10.392;2023-05-10T11:11:02;1.70;;;1.50;;
61477;SDS011;47345;52.334;10.392;2023-05-10T11:13:37;1.80;;;1.70;;
61477;SDS011;47345;52.334;10.392;2023-05-10T11:16:13;1.50;;;1.50;;
61477;SDS011;47345;52.334;10.392;2023-05-10T11:18:56;1.80;;;1.70;;
61477;SDS011;47345;52.334;10.392;2023-05-10T11:21:30;1.80;;;1.60;;
61477;SDS011;47345;52.334;10.392;2023-05-10T11:24:02;4.10;;;1.70;;
61477;SDS011;47345;52.334;10.392;2023-05-10T11:26:43;2.10;;;1.70;;
61477;SDS011;47345;52.334;10.392;2023-05-10T11:29:15;2.30;;;1.90;;
61477;SDS011;47345;52.334;10.392;2023-05-10T11:31:47;2.10;;;1.90;;
61477;SDS011;47345;52.334;10.392;2023-05-10T11:34:25;1.90;;;1.80;;
61477;SDS011;47345;52.334;10.392;2023-05-10T11:36:57;2.10;;;1.90;;
61477;SDS011;47345;52.334;10.392;2023-05-10T11:39:28;1.80;;;1.70;;
61477;SDS011;47345;52.334;10.392;2023-05-10T11:42:01;2.40;;;2.00;;
61477;SDS011;47345;52.334;10.392;2023-05-10T11:44:32;2.20;;;2.00;;
61477;SDS011;47345;52.334;10.392;2023-05-10T11:47:02;1.90;;;1.70;;
61477;SDS011;47345;52.334;10.392;2023-05-10T11:49:34;1.70;;;1.60;;
61477;SDS011;47345;52.334;10.392;2023-05-10T11:52:05;1.70;;;1.60;;
61477;SDS011;47345;52.334;10.392;2023-05-10T11:54:36;2.00;;;1.60;;
61477;SDS011;47345;52.334;10.392;2023-05-10T11:57:13;1.80;;;1.70;;
61477;SDS011;47345;52.334;10.392;2023-05-10T11:59:44;2.10;;;1.70;;
61477;SDS011;47345;52.334;10.392;2023-05-10T12:02:15;1.60;;;1.50;;
61477;SDS011;47345;52.334;10.392;2023-05-10T12:04:47;2.70;;;1.50;;
61477;SDS011;47345;52.334;10.392;2023-05-10T12:07:21;1.80;;;1.60;;
61477;SDS011;47345;52.334;10.392;2023-05-10T12:10:05;1.70;;;1.60;;
61477;SDS011;47345;52.334;10.392;2023-05-10T12:12:40;1.60;;;1.50;;
61477;SDS011;47345;52.334;10.392;2023-05-10T12:15:12;1.60;;;1.50;;
61477;SDS011;47345;52.334;10.392;2023-05-10T12:17:46;1.50;;;1.40;;
61477;SDS011;47345;52.334;10.392;2023-05-10T12:20:18;1.90;;;1.70;;
61477;SDS011;47345;52.334;10.392;2023-05-10T12:22:51;1.60;;;1.50;;
61477;SDS011;47345;52.334;10.392;2023-05-10T12:25:30;1.60;;;1.50;;
61477;SDS011;47345;52.334;10.392;2023-05-10T12:28:04;1.70;;;1.50;;
61477;SDS011;47345;52.334;10.392;2023-05-10T12:30:36;1.70;;;1.60;;
61477;SDS011;47345;52.334;10.392;2023-05-10T12:33:10;4.40;;;1.60;;
61477;SDS011;47345;52.334;10.392;2023-05-10T12:35:46;2.50;;;1.60;;
61477;SDS011;47345;52.334;10.392;2023-05-10T12:38:31;1.80;;;1.60;;
61477;SDS011;47345;52.334;10.392;2023-05-10T12:41:06;1.60;;;1.50;;
61477;SDS011;47345;52.334;10.392;2023-05-10T12:43:37;10.00;;;6.70;;
61477;SDS011;47345;52.334;10.392;2023-05-10T12:46:12;2.00;;;1.80;;
61477;SDS011;47345;52.334;10.392;2023-05-10T12:48:45;3.30;;;2.20;;
61477;SDS011;47345;52.334;10.392;2023-05-10T12:51:35;2.80;;;1.90;;
61477;SDS011;47345;52.334;10.392;2023-05-10T12:54:06;2.10;;;1.70;;
61477;SDS011;47345;52.334;10.392;2023-05-10T12:56:39;4.00;;;2.00;;
61477;SDS011;47345;52.334;10.392;2023-05-10T12:59:10;3.00;;;1.60;;
61477;SDS011;47345;52.334;10.392;2023-05-10T13:01:41;2.70;;;1.70;;
61477;SDS011;47345;52.334;10.392;2023-05-10T13:04:11;1.70;;;1.60;;
61477;SDS011;47345;52.334;10.392;2023-05-10T13:06:42;2.80;;;1.30;;
61477;SDS011;47345;52.334;10.392;2023-05-10T13:09:13;3.40;;;1.90;;
61477;SDS011;47345;52.334;10.392;2023-05-10T13:11:43;2.10;;;1.90;;
61477;SDS011;47345;52.334;10.392;2023-05-10T13:14:15;3.90;;;1.90;;
61477;SDS011;47345;52.334;10.392;2023-05-10T13:16:48;2.00;;;1.70;;
61477;SDS011;47345;52.334;10.392;2023-05-10T13:19:19;2.10;;;1.60;;
61477;SDS011;47345;52.334;10.392;2023-05-10T13:21:49;3.00;;;1.80;;
61477;SDS011;47345;52.334;10.392;2023-05-10T13:24:20;3.20;;;2.00;;
61477;SDS011;47345;52.334;10.392;2023-05-10T13:26:51;2.30;;;1.80;;
61477;SDS011;47345;52.334;10.392;2023-05-10T13:29:22;2.80;;;1.90;;
61477;SDS011;47345;52.334;10.392;2023-05-10T13:31:53;1.60;;;1.50;;
61477;SDS011;47345;52.334;10.392;2023-05-10T13:34:24;2.20;;;1.70;;
61477;SDS011;47345;52.334;10.392;2023-05-10T13:36:55;3.40;;;1.90;;
61477;SDS011;47345;52.334;10.392;2023-05-10T13:39:26;1.70;;;1.60;;
61477;SDS011;47345;52.334;10.392;2023-05-10T13:42:01;3.10;;;1.80;;
61477;SDS011;47345;52.334;10.392;2023-05-10T13:44:31;2.00;;;1.80;;
61477;SDS011;47345;52.334;10.392;2023-05-10T13:47:03;2.50;;;2.00;;
61477;SDS011;47345;52.334;10.392;2023-05-10T13:49:34;3.20;;;1.90;;
61477;SDS011;47345;52.334;10.392;2023-05-10T13:52:05;2.10;;;1.90;;
61477;SDS011;47345;52.334;10.392;2023-05-10T13:54:37;3.40;;;1.70;;
61477;SDS011;47345;52.334;10.392;2023-05-10T13:57:08;1.70;;;1.50;;
61477;SDS011;47345;52.334;10.392;2023-05-10T13:59:41;1.90;;;1.70;;
61477;SDS011;47345;52.334;10.392;2023-05-10T14:02:12;3.20;;;1.70;;
61477;SDS011;47345;52.334;10.392;2023-05-10T14:04:42;3.40;;;1.90;;
61477;SDS011;47345;52.334;10.392;2023-05-10T14:07:14;3.10;;;1.90;;
61477;SDS011;47345;52.334;10.392;2023-05-10T14:09:45;1.60;;;1.50;;
61477;SDS011;47345;52.334;10.392;2023-05-10T14:12:16;2.00;;;1.70;;
61477;SDS011;47345;52.334;10.392;2023-05-10T14:14:46;1.80;;;1.70;;
61477;SDS011;47345;52.334;10.392;2023-05-10T14:17:17;4.00;;;1.70;;
61477;SDS011;47345;52.334;10.392;2023-05-10T14:19:48;3.10;;;1.80;;
61477;SDS011;47345;52.334;10.392;2023-05-10T14:22:20;2.10;;;1.70;;
61477;SDS011;47345;52.334;10.392;2023-05-10T14:24:50;1.80;;;1.70;;
61477;SDS011;47345;52.334;10.392;2023-05-10T14:27:21;2.60;;;1.60;;
61477;SDS011;47345;52.334;10.392;2023-05-10T14:29:52;4.70;;;1.90;;
61477;SDS011;47345;52.334;10.392;2023-05-10T14:32:23;2.40;;;1.80;;
61477;SDS011;47345;52.334;10.392;2023-05-10T14:34:55;1.90;;;1.70;;
61477;SDS011;47345;52.334;10.392;2023-05-10T14:37:28;2.20;;;1.70;;
61477;SDS011;47345;52.334;10.392;2023-05-10T14:39:58;2.10;;;1.80;;
61477;SDS011;47345;52.334;10.392;2023-05-10T14:42:32;1.90;;;1.80;;
61477;SDS011;47345;52.334;10.392;2023-05-10T14:45:03;2.20;;;1.80;;
61477;SDS011;47345;52.334;10.392;2023-05-10T14:47:36;2.60;;;2.00;;
61477;SDS011;47345;52.334;10.392;2023-05-10T14:50:08;2.10;;;1.90;;
61477;SDS011;47345;52.334;10.392;2023-05-10T14:52:58;1.90;;;1.60;;
61477;SDS011;47345;52.334;10.392;2023-05-10T14:55:29;2.70;;;2.00;;
61477;SDS011;47345;52.334;10.392;2023-05-10T14:58:00;3.50;;;1.80;;
61477;SDS011;47345;52.334;10.392;2023-05-10T15:00:31;1.80;;;1.50;;
61477;SDS011;47345;52.334;10.392;2023-05-10T15:03:02;4.10;;;2.30;;
61477;SDS011;47345;52.334;10.392;2023-05-10T15:05:34;3.70;;;1.80;;
61477;SDS011;47345;52.334;10.392;2023-05-10T15:08:05;4.00;;;2.00;;
61477;SDS011;47345;52.334;10.392;2023-05-10T15:10:37;2.60;;;2.00;;
61477;SDS011;47345;52.334;10.392;2023-05-10T15:13:07;2.20;;;1.70;;
61477;SDS011;47345;52.334;10.392;2023-05-10T15:15:38;2.70;;;1.60;;
61477;SDS011;47345;52.334;10.392;2023-05-10T15:18:09;1.90;;;1.80;;